Time;durP1;ratioP1;P1;durP2;ratioP2;P2;SDS_P1;SDS_P2;PMS_P1;PMS_P2;Temp;Humidity;BMP_temperature;BMP_pressure;BME280_temperature;BME280_humidity;BME280_pressure;Samples;Min_cycle;Max_cycle;Signal;HPM_P1;HPM_P2
2021/05/14 00:00:12;;;;;;;70.85;32.42;;;;;;;11.09;91.10;100953.69;5018992;28;20057;-71
2021/05/14 00:02:39;;;;;;;61.88;30.02;;;;;;;11.07;90.40;100950.16;5019098;28;20376;-71
2021/05/14 00:05:08;;;;;;;58.13;29.80;;;;;;;11.04;90.72;100967.19;5019070;28;20417;-71
2021/05/14 00:07:36;;;;;;;55.85;27.77;;;;;;;11.02;90.57;100969.03;5020235;28;20065;-71
2021/05/14 00:10:05;;;;;;;48.78;25.00;;;;;;;11.02;90.04;100967.22;5014918;28;20464;-71
2021/05/14 00:12:32;;;;;;;63.03;30.67;;;;;;;11.00;90.97;100970.88;5020088;28;20057;-72
2021/05/14 00:15:00;;;;;;;66.45;32.38;;;;;;;11.02;92.26;100967.22;5017860;28;20072;-70
2021/05/14 00:17:27;;;;;;;70.70;34.55;;;;;;;11.06;92.20;100967.13;5022476;28;20255;-71
2021/05/14 00:19:54;;;;;;;67.43;32.17;;;;;;;11.02;91.94;100972.56;5020996;28;20061;-72
2021/05/14 00:22:22;;;;;;;61.33;28.60;;;;;;;11.05;91.43;100958.25;5018174;28;20472;-72
2021/05/14 00:24:50;;;;;;;49.67;23.88;;;;;;;11.02;90.43;100955.69;5018145;28;20107;-72
2021/05/14 00:27:17;;;;;;;43.15;20.30;;;;;;;11.01;90.34;100953.91;5019116;28;20062;-71
2021/05/14 00:29:44;;;;;;;42.13;21.10;;;;;;;11.00;89.83;100962.88;5020894;28;20057;-72
2021/05/14 00:32:12;;;;;;;37.88;20.35;;;;;;;10.99;89.43;100956.63;5017161;28;20571;-71
2021/05/14 00:34:39;;;;;;;43.53;21.83;;;;;;;10.95;90.19;100957.66;5021940;28;20510;-71
2021/05/14 00:37:06;;;;;;;52.35;23.30;;;;;;;10.92;90.82;100952.41;5016036;28;20089;-71
2021/05/14 00:39:34;;;;;;;74.00;32.03;;;;;;;10.90;91.24;100964.94;5018273;28;20073;-72
2021/05/14 00:42:02;;;;;;;71.43;31.88;;;;;;;10.93;91.34;100962.19;5015697;28;20064;-71
2021/05/14 00:44:32;;;;;;;69.97;30.52;;;;;;;10.95;91.19;100962.16;5018865;28;20061;-71
2021/05/14 00:47:01;;;;;;;74.50;32.75;;;;;;;10.94;91.92;100965.72;5014595;28;20176;-71
2021/05/14 00:49:29;;;;;;;64.35;28.58;;;;;;;10.92;91.35;100968.44;5018405;28;20152;-71
2021/05/14 00:51:57;;;;;;;69.65;30.45;;;;;;;10.89;91.78;100965.00;5015769;28;20175;-71
2021/05/14 00:54:28;;;;;;;81.82;34.88;;;;;;;10.84;92.42;100959.78;5022849;28;20068;-71
2021/05/14 00:56:55;;;;;;;71.53;32.92;;;;;;;10.87;92.07;100962.38;5018643;28;21039;-70
2021/05/14 00:59:23;;;;;;;76.75;34.75;;;;;;;10.91;92.11;100956.00;5026245;28;20416;-70
2021/05/14 01:01:51;;;;;;;67.97;30.45;;;;;;;10.92;91.83;100954.22;5015835;28;20087;-70
2021/05/14 01:04:19;;;;;;;74.63;35.90;;;;;;;10.94;92.04;100952.38;5020918;28;20478;-70
2021/05/14 01:06:46;;;;;;;72.70;33.75;;;;;;;10.92;91.76;100956.91;5019088;28;20411;-72
2021/05/14 01:09:14;;;;;;;68.63;33.03;;;;;;;10.90;91.92;100951.59;5017387;28;20172;-70
2021/05/14 01:11:41;;;;;;;74.97;35.35;;;;;;;10.93;92.72;100966.63;5016496;28;20057;-71
2021/05/14 01:14:09;;;;;;;76.18;35.22;;;;;;;10.92;92.86;100955.09;5017734;28;20061;-72
2021/05/14 01:16:38;;;;;;;72.07;35.45;;;;;;;10.91;92.27;100952.47;5018041;28;20057;-71
2021/05/14 01:19:05;;;;;;;76.68;34.30;;;;;;;10.91;92.27;100957.81;5017544;28;20057;-70
2021/05/14 01:21:34;;;;;;;67.10;32.80;;;;;;;10.84;91.66;100957.13;5017529;28;20065;-72
2021/05/14 01:24:02;;;;;;;56.00;25.73;;;;;;;10.77;91.34;100952.91;5020674;28;20178;-70
2021/05/14 01:26:30;;;;;;;40.42;19.42;;;;;;;10.63;90.48;100958.66;5018719;28;20054;-71
2021/05/14 01:28:57;;;;;;;34.25;18.27;;;;;;;10.57;90.94;100951.75;5018807;28;20065;-71
2021/05/14 01:31:24;;;;;;;36.75;18.10;;;;;;;10.54;90.78;100957.16;5019560;28;20065;-72
2021/05/14 01:33:52;;;;;;;35.58;16.83;;;;;;;10.63;91.20;100961.34;5024109;28;20371;-73
2021/05/14 01:36:19;;;;;;;43.50;18.77;;;;;;;10.62;90.59;100951.56;5017538;28;20281;-71
2021/05/14 01:38:47;;;;;;;41.00;18.88;;;;;;;10.59;90.42;100960.56;5016401;28;20468;-72
2021/05/14 01:41:15;;;;;;;38.75;18.23;;;;;;;10.55;90.78;100958.88;5018236;28;20058;-72
2021/05/14 01:43:42;;;;;;;35.60;16.83;;;;;;;10.53;90.23;100962.53;5018094;28;20061;-71
2021/05/14 01:46:11;;;;;;;43.42;18.08;;;;;;;10.55;90.35;100953.56;5018365;28;20100;-71
2021/05/14 01:48:38;;;;;;;39.67;18.48;;;;;;;10.51;90.73;100953.72;5018237;28;20498;-71
2021/05/14 01:51:12;;;;;;;45.08;20.52;;;;;;;10.51;90.50;100956.38;5020470;28;20436;-71
2021/05/14 01:53:39;;;;;;;49.15;20.33;;;;;;;10.44;90.10;100953.03;5015852;28;20064;-72
2021/05/14 01:56:07;;;;;;;46.50;21.70;;;;;;;10.43;90.57;100962.78;5019923;28;20092;-71
2021/05/14 01:58:35;;;;;;;43.55;19.90;;;;;;;10.43;90.44;100954.78;5015880;28;20061;-72
2021/05/14 02:01:02;;;;;;;46.47;20.85;;;;;;;10.44;91.16;100966.34;5020119;28;20063;-72
2021/05/14 02:03:29;;;;;;;39.15;17.48;;;;;;;10.44;90.81;100967.22;5012862;28;20267;-72
2021/05/14 02:05:57;;;;;;;45.45;20.05;;;;;;;10.39;91.72;100968.28;5018111;28;20069;-73
2021/05/14 02:08:24;;;;;;;40.13;17.35;;;;;;;10.40;90.72;100967.34;5013255;28;20500;-72
2021/05/14 02:10:52;;;;;;;39.65;17.55;;;;;;;10.34;90.90;100962.22;5023502;28;20057;-72
2021/05/14 02:13:20;;;;;;;40.83;18.45;;;;;;;10.24;90.48;100964.22;5016041;28;20060;-72
2021/05/14 02:15:48;;;;;;;44.45;20.75;;;;;;;10.27;90.22;100959.69;5020855;28;20152;-72
2021/05/14 02:18:15;;;;;;;39.60;18.85;;;;;;;10.21;90.50;100958.97;5014742;28;20110;-73
2021/05/14 02:20:42;;;;;;;47.67;20.02;;;;;;;10.16;90.36;100956.44;5016329;28;20067;-72
2021/05/14 02:23:11;;;;;;;44.28;19.95;;;;;;;10.16;90.57;100958.22;5013587;28;20179;-72
2021/05/14 02:25:38;;;;;;;43.63;18.90;;;;;;;10.12;90.55;100957.44;5030624;28;20467;-72
2021/05/14 02:28:08;;;;;;;36.13;18.45;;;;;;;10.14;90.58;100946.75;5014082;28;20119;-72
2021/05/14 02:30:37;;;;;;;38.70;16.80;;;;;;;10.08;90.56;100955.81;5020209;28;20065;-72
2021/05/14 02:33:54;;;;;;;38.78;18.17;;;;;;;10.05;90.70;100950.56;5017030;28;20065;-72
2021/05/14 02:36:21;;;;;;;41.95;19.40;;;;;;;10.01;90.67;100952.44;5018462;28;20066;-72
2021/05/14 02:38:49;;;;;;;41.53;17.30;;;;;;;10.06;90.93;100952.28;5017656;28;20065;-73
2021/05/14 02:41:16;;;;;;;40.25;18.27;;;;;;;10.01;90.43;100952.44;5020642;28;20060;-72
2021/05/14 02:43:44;;;;;;;39.55;17.30;;;;;;;10.01;90.54;100959.53;5020858;28;20057;-73
2021/05/14 02:46:12;;;;;;;40.10;18.73;;;;;;;9.96;89.80;100959.69;5010916;28;20068;-73
2021/05/14 02:48:39;;;;;;;39.05;17.27;;;;;;;9.89;90.16;100952.75;5015797;28;20062;-72
2021/05/14 02:51:07;;;;;;;39.55;17.77;;;;;;;9.85;89.97;100957.28;5013656;28;20057;-73
2021/05/14 02:53:34;;;;;;;38.83;18.23;;;;;;;9.79;90.20;100957.47;5038474;28;20057;-72
2021/05/14 02:56:02;;;;;;;39.22;17.75;;;;;;;9.78;90.54;100949.53;5019723;28;20061;-72
2021/05/14 02:58:29;;;;;;;34.22;18.00;;;;;;;9.71;90.13;100947.00;5024714;28;20061;-72
2021/05/14 03:00:56;;;;;;;35.55;17.08;;;;;;;9.67;89.73;100942.69;5016956;28;20069;-73
2021/05/14 03:03:25;;;;;;;40.78;17.75;;;;;;;9.65;89.86;100946.28;5022230;28;20061;-73
2021/05/14 03:05:52;;;;;;;39.00;17.90;;;;;;;9.65;90.25;100948.94;5017427;28;20069;-72
2021/05/14 03:08:19;;;;;;;43.28;20.00;;;;;;;9.66;90.74;100948.06;5024908;28;20353;-72
2021/05/14 03:10:47;;;;;;;43.97;18.15;;;;;;;9.63;90.44;100948.13;5020879;28;20057;-72
2021/05/14 03:13:14;;;;;;;39.97;17.55;;;;;;;9.55;90.39;100948.31;5022591;28;20413;-72
2021/05/14 03:15:41;;;;;;;43.92;18.88;;;;;;;9.55;90.86;100948.31;5021085;28;20065;-72
2021/05/14 03:18:09;;;;;;;46.58;18.38;;;;;;;9.61;90.60;100945.50;5022766;28;20641;-73
2021/05/14 03:20:37;;;;;;;42.45;18.15;;;;;;;9.58;90.64;100942.91;5021879;28;20150;-72
2021/05/14 03:23:04;;;;;;;46.45;19.48;;;;;;;9.54;90.54;100943.91;5018698;28;21027;-74
2021/05/14 03:25:31;;;;;;;44.10;19.35;;;;;;;9.54;91.17;100943.91;5022470;28;20061;-72
2021/05/14 03:27:59;;;;;;;37.92;19.27;;;;;;;9.56;91.17;100947.41;5020047;28;20061;-72
2021/05/14 03:30:26;;;;;;;43.47;18.17;;;;;;;9.56;91.10;100952.75;5019224;28;20057;-72
2021/05/14 03:32:54;;;;;;;42.28;19.58;;;;;;;9.58;91.21;100944.72;5018887;28;20053;-73
2021/05/14 03:35:21;;;;;;;39.65;18.98;;;;;;;9.54;91.13;100941.25;5017771;28;20069;-73
2021/05/14 03:37:49;;;;;;;43.67;19.35;;;;;;;9.53;90.68;100950.16;5020001;28;20336;-73
2021/05/14 03:40:19;;;;;;;46.22;21.08;;;;;;;9.48;91.23;100949.41;5017597;28;20110;-72
2021/05/14 03:42:47;;;;;;;42.45;19.58;;;;;;;9.52;90.99;100951.09;5021754;28;20066;-72
2021/05/14 03:45:15;;;;;;;53.97;22.15;;;;;;;9.45;91.02;100942.38;5020142;28;20072;-72
2021/05/14 03:47:43;;;;;;;51.50;21.88;;;;;;;9.47;90.86;100943.19;5018618;28;20144;-72
2021/05/14 03:50:12;;;;;;;47.45;20.75;;;;;;;9.54;91.29;100943.91;5017584;28;20152;-72
2021/05/14 03:52:39;;;;;;;48.35;21.63;;;;;;;9.49;91.90;100944.03;5022074;28;20075;-72
2021/05/14 03:55:09;;;;;;;49.03;20.73;;;;;;;9.50;91.52;100942.22;5020997;28;20057;-72
2021/05/14 03:57:36;;;;;;;48.13;21.38;;;;;;;9.52;91.34;100949.28;5019435;28;20069;-73
2021/05/14 04:00:04;;;;;;;52.38;22.35;;;;;;;9.50;91.80;100945.78;5020222;28;20071;-72
2021/05/14 04:02:32;;;;;;;52.97;21.40;;;;;;;9.50;91.16;100951.13;5019846;28;20084;-72
2021/05/14 04:05:00;;;;;;;52.10;23.05;;;;;;;9.54;91.17;100958.09;5018407;28;20165;-73
2021/05/14 04:07:27;;;;;;;53.42;22.27;;;;;;;9.52;91.03;100951.94;5023416;28;20786;-73
2021/05/14 04:10:04;;;;;;;40.17;19.65;;;;;;;9.51;90.88;100950.19;5023540;28;20061;-73
2021/05/14 04:15:22;;;;;;;48.35;21.00;;;;;;;9.49;90.68;100948.50;5022739;28;20069;-72
2021/05/14 04:17:49;;;;;;;46.42;19.25;;;;;;;9.56;90.94;100954.53;5017667;28;20065;-74
2021/05/14 04:20:16;;;;;;;51.03;21.10;;;;;;;9.52;90.31;100951.94;5023818;28;20284;-73
2021/05/14 04:22:44;;;;;;;48.40;20.65;;;;;;;9.51;90.69;100952.84;5016479;28;20088;-73
2021/05/14 04:25:12;;;;;;;48.72;20.08;;;;;;;9.50;91.10;100952.88;5023923;28;20065;-73
2021/05/14 04:27:40;;;;;;;46.95;21.23;;;;;;;9.46;90.85;100956.56;5017670;28;20224;-73
2021/05/14 04:30:08;;;;;;;49.83;21.50;;;;;;;9.49;90.79;100954.69;5023452;28;20057;-73
2021/05/14 04:32:36;;;;;;;46.20;18.80;;;;;;;9.51;90.53;100958.19;5016292;28;20057;-72
2021/05/14 04:35:04;;;;;;;45.90;22.02;;;;;;;9.51;90.99;100959.97;5024012;28;20099;-73
2021/05/14 04:37:32;;;;;;;43.78;20.25;;;;;;;9.52;91.02;100956.41;5012871;28;20107;-70
2021/05/14 04:39:59;;;;;;;47.08;21.58;;;;;;;9.52;90.58;100954.63;5022693;28;20083;-70
2021/05/14 04:42:26;;;;;;;47.67;20.02;;;;;;;9.58;91.04;100956.22;5014596;28;20068;-70
2021/05/14 04:44:54;;;;;;;44.50;19.98;;;;;;;9.61;90.81;100949.97;5021347;28;20144;-69
2021/05/14 04:47:21;;;;;;;48.05;21.40;;;;;;;9.58;90.66;100953.56;5013778;28;20491;-68
2021/05/14 04:49:49;;;;;;;53.88;24.02;;;;;;;9.54;91.33;100955.44;5022318;28;20076;-69
2021/05/14 04:52:19;;;;;;;51.92;23.65;;;;;;;9.58;90.77;100955.38;5015314;28;20061;-69
2021/05/14 04:54:47;;;;;;;45.42;21.58;;;;;;;9.55;90.84;100953.66;5021320;28;20056;-69
2021/05/14 04:57:14;;;;;;;50.05;22.42;;;;;;;9.52;91.13;100951.09;5017102;28;20401;-69
2021/05/14 04:59:41;;;;;;;49.20;21.45;;;;;;;9.60;91.01;100953.53;5020649;28;20061;-70
2021/05/14 05:02:11;;;;;;;47.75;20.65;;;;;;;9.60;90.40;100957.06;5017825;28;20053;-69
2021/05/14 05:04:40;;;;;;;44.53;19.15;;;;;;;9.64;90.42;100952.56;5021717;28;20123;-70
2021/05/14 05:07:07;;;;;;;47.75;21.75;;;;;;;9.64;90.83;100956.09;5018545;28;20053;-71
2021/05/14 05:09:35;;;;;;;56.40;21.65;;;;;;;9.64;90.69;100961.41;5015582;28;20460;-70
2021/05/14 05:12:02;;;;;;;47.50;20.83;;;;;;;9.67;90.57;100966.66;5019864;28;20057;-69
2021/05/14 05:14:30;;;;;;;48.03;19.77;;;;;;;9.73;90.70;100963.81;5016809;28;20161;-70
2021/05/14 05:16:57;;;;;;;47.28;20.65;;;;;;;9.81;90.51;100968.09;5017158;28;20064;-71
2021/05/14 05:19:25;;;;;;;43.58;19.80;;;;;;;9.80;90.49;100966.34;5018523;28;20157;-72
2021/05/14 05:21:53;;;;;;;45.58;20.10;;;;;;;9.84;90.20;100965.31;5015751;28;20068;-73
2021/05/14 05:24:21;;;;;;;49.22;21.77;;;;;;;9.89;89.85;100972.31;5022864;28;20072;-70
2021/05/14 05:26:48;;;;;;;48.33;20.40;;;;;;;9.93;90.02;100964.19;5017163;28;20057;-70
2021/05/14 05:29:16;;;;;;;47.72;20.00;;;;;;;9.95;89.36;100975.72;5021028;28;20061;-69
2021/05/14 05:31:44;;;;;;;49.65;21.13;;;;;;;9.96;89.50;100974.78;5015813;28;20067;-70
2021/05/14 05:34:11;;;;;;;44.55;20.58;;;;;;;9.97;89.33;100981.88;5021634;28;20151;-69
2021/05/14 05:36:39;;;;;;;46.00;21.05;;;;;;;9.99;88.96;100978.22;5018412;28;20108;-68
2021/05/14 05:39:07;;;;;;;46.33;20.67;;;;;;;9.93;88.28;100977.53;5014063;28;20054;-70
2021/05/14 05:41:34;;;;;;;44.88;19.90;;;;;;;9.94;89.00;100987.28;5016176;28;20065;-69
2021/05/14 05:44:01;;;;;;;41.97;18.63;;;;;;;10.10;88.72;100985.97;5021776;28;20064;-70
2021/05/14 05:46:29;;;;;;;47.17;21.95;;;;;;;10.12;88.69;100992.13;5019244;28;20304;-70
2021/05/14 05:48:56;;;;;;;50.28;20.50;;;;;;;10.09;88.00;100990.38;5021475;28;20392;-70
2021/05/14 05:51:23;;;;;;;43.92;20.17;;;;;;;10.18;88.27;100991.06;5017782;28;20072;-69
2021/05/14 05:53:51;;;;;;;44.38;19.63;;;;;;;10.27;87.60;100996.16;5016670;28;20061;-70
2021/05/14 05:56:18;;;;;;;47.00;20.42;;;;;;;10.32;87.59;100986.25;5018614;28;20119;-70
2021/05/14 05:58:46;;;;;;;45.78;19.70;;;;;;;10.46;88.11;100991.19;5013724;28;20060;-69
2021/05/14 06:01:13;;;;;;;45.22;21.80;;;;;;;10.43;87.89;100986.81;5018906;28;20087;-72
2021/05/14 06:03:40;;;;;;;44.78;20.33;;;;;;;10.49;87.62;100995.53;5016507;28;20127;-70
2021/05/14 06:06:08;;;;;;;41.45;18.67;;;;;;;10.54;86.74;100998.94;5018575;28;20057;-74
2021/05/14 06:08:36;;;;;;;44.72;20.02;;;;;;;10.45;86.82;101003.66;5013290;28;20123;-69
2021/05/14 06:11:04;;;;;;;44.60;20.23;;;;;;;10.53;87.07;101003.44;5018678;28;20061;-70
2021/05/14 06:13:33;;;;;;;46.67;21.35;;;;;;;10.57;87.30;100998.88;5015165;28;20065;-69
2021/05/14 06:16:01;;;;;;;48.55;20.05;;;;;;;10.50;87.46;100998.16;5017504;28;20444;-69
2021/05/14 06:18:34;;;;;;;43.05;19.35;;;;;;;10.59;87.30;101003.25;5019315;28;20334;-70
2021/05/14 06:21:01;;;;;;;53.47;23.52;;;;;;;10.51;86.87;101007.06;5012683;28;20065;-69
2021/05/14 06:23:29;;;;;;;48.10;20.35;;;;;;;10.63;87.20;101006.72;5015591;28;20504;-71
2021/05/14 06:25:56;;;;;;;49.55;21.88;;;;;;;10.67;86.90;101008.34;5016308;28;20097;-71
2021/05/14 06:28:25;;;;;;;51.35;22.25;;;;;;;10.81;86.44;100999.91;5018709;28;20061;-70
2021/05/14 06:30:52;;;;;;;51.17;22.27;;;;;;;10.85;86.83;101004.25;5021896;28;20054;-70
2021/05/14 06:33:19;;;;;;;49.20;20.95;;;;;;;10.96;86.21;101015.47;5021531;28;20076;-70
2021/05/14 06:35:49;;;;;;;42.47;20.63;;;;;;;10.91;84.83;101012.06;5018220;28;20387;-70
2021/05/14 06:38:16;;;;;;;43.55;19.50;;;;;;;10.84;85.25;101015.84;5032350;28;20163;-70
2021/05/14 06:40:44;;;;;;;40.88;18.95;;;;;;;10.80;84.68;101017.75;5016016;28;20376;-69
2021/05/14 06:43:12;;;;;;;44.97;18.88;;;;;;;10.93;85.13;101015.59;5016366;28;20104;-70
2021/05/14 06:45:40;;;;;;;49.63;20.60;;;;;;;10.91;83.99;101020.06;5016195;28;20060;-72
2021/05/14 06:48:13;;;;;;;46.97;20.08;;;;;;;11.13;85.32;101014.94;5015256;28;20080;-72
2021/05/14 06:50:41;;;;;;;51.45;20.70;;;;;;;11.21;84.31;101022.72;5021232;28;20693;-72
2021/05/14 06:53:09;;;;;;;53.03;22.48;;;;;;;11.18;83.37;101014.81;5018808;28;20064;-70
2021/05/14 06:55:36;;;;;;;55.33;22.48;;;;;;;11.18;82.38;101028.16;5016403;28;20064;-71
2021/05/14 06:58:04;;;;;;;58.80;23.33;;;;;;;11.18;82.82;101026.34;5013600;28;20084;-70
2021/05/14 07:00:32;;;;;;;73.38;28.65;;;;;;;11.07;81.63;101028.50;5016042;28;20068;-69
2021/05/14 07:03:00;;;;;;;67.82;24.13;;;;;;;11.21;82.28;101031.59;5011474;28;20239;-70
2021/05/14 07:05:28;;;;;;;68.57;26.10;;;;;;;11.47;81.85;101027.22;5016844;28;20093;-69
2021/05/14 07:07:55;;;;;;;60.33;24.73;;;;;;;11.52;81.42;101030.59;5014787;28;20112;-71
2021/05/14 07:10:23;;;;;;;71.07;28.10;;;;;;;11.51;78.95;101026.22;5018281;28;20361;-71
2021/05/14 07:12:51;;;;;;;61.40;24.88;;;;;;;11.64;80.49;101031.13;5030594;28;20440;-71
2021/05/14 07:15:18;;;;;;;60.10;23.73;;;;;;;11.74;80.06;101025.41;5013880;28;20061;-71
2021/05/14 07:17:46;;;;;;;63.70;25.25;;;;;;;11.97;79.60;101023.81;5016818;28;20179;-71
2021/05/14 07:20:15;;;;;;;60.88;24.38;;;;;;;12.49;77.39;101032.63;5019451;28;20057;-69
2021/05/14 07:22:44;;;;;;;60.13;24.83;;;;;;;12.46;76.48;101022.06;5018143;28;20172;-71
2021/05/14 07:25:11;;;;;;;62.70;25.17;;;;;;;13.22;75.20;101022.69;5034873;28;20068;-69
2021/05/14 07:27:39;;;;;;;64.70;25.88;;;;;;;13.76;72.67;101025.00;5017564;28;20062;-71
2021/05/14 07:30:09;;;;;;;52.75;21.70;;;;;;;14.37;71.61;101021.47;5014395;28;20065;-70
2021/05/14 07:32:36;;;;;;;50.38;22.48;;;;;;;14.42;69.00;101026.59;5020271;28;20057;-70
2021/05/14 07:35:05;;;;;;;57.10;25.40;;;;;;;14.00;70.98;101017.72;5018677;28;20085;-69
2021/05/14 07:37:33;;;;;;;56.70;25.08;;;;;;;13.85;71.99;101026.41;5022234;28;20324;-71
2021/05/14 07:40:01;;;;;;;50.65;23.10;;;;;;;13.65;72.58;101030.81;5021018;28;20357;-72
2021/05/14 07:42:28;;;;;;;49.38;21.00;;;;;;;13.79;72.35;101031.09;5020032;28;20444;-70
2021/05/14 07:44:55;;;;;;;52.53;21.30;;;;;;;13.89;71.78;101036.94;5022716;28;20057;-72
2021/05/14 07:47:22;;;;;;;51.90;22.05;;;;;;;13.61;71.64;101029.19;5017965;28;20065;-69
2021/05/14 07:49:50;;;;;;;49.50;21.13;;;;;;;13.78;72.25;101029.34;5021882;28;20053;-70
2021/05/14 07:52:17;;;;;;;50.42;24.85;;;;;;;13.45;72.03;101034.34;5019622;28;20484;-71
2021/05/14 07:54:48;;;;;;;51.45;22.85;;;;;;;13.39;73.49;101030.06;5021176;28;20053;-71
2021/05/14 07:57:20;;;;;;;48.60;23.25;;;;;;;12.88;72.40;101036.53;5020496;28;20065;-71
2021/05/14 07:59:48;;;;;;;49.45;22.65;;;;;;;12.62;73.38;101041.06;5017640;28;20243;-71
2021/05/14 08:02:15;;;;;;;46.83;21.45;;;;;;;12.94;73.55;101046.13;5021148;28;20111;-69
2021/05/14 08:04:43;;;;;;;51.65;23.85;;;;;;;12.61;73.29;101042.00;5019011;28;20061;-71
2021/05/14 08:07:11;;;;;;;56.00;24.08;;;;;;;12.78;73.00;101049.41;5019205;28;20140;-70
2021/05/14 08:09:40;;;;;;;52.75;22.70;;;;;;;13.42;71.68;101046.03;5015208;28;20064;-69
2021/05/14 08:12:09;;;;;;;49.22;21.50;;;;;;;13.63;69.90;101032.69;5020965;28;20096;-71
2021/05/14 08:14:36;;;;;;;50.72;22.70;;;;;;;13.88;68.88;101042.38;5016572;28;20065;-69
2021/05/14 08:17:04;;;;;;;49.53;21.80;;;;;;;14.22;69.14;101046.25;5023491;28;20052;-69
2021/05/14 08:19:31;;;;;;;43.88;20.02;;;;;;;14.69;68.56;101048.66;5014458;28;20305;-70
2021/05/14 08:21:59;;;;;;;43.47;19.42;;;;;;;14.36;67.88;101046.53;5021482;28;20053;-70
2021/05/14 08:24:26;;;;;;;48.50;22.75;;;;;;;14.35;65.82;101044.78;5015725;28;20064;-72
2021/05/14 08:26:53;;;;;;;48.40;22.88;;;;;;;14.51;67.02;101039.63;5020244;28;20460;-72
2021/05/14 08:29:22;;;;;;;49.75;23.08;;;;;;;14.59;65.53;101044.66;5013235;28;20069;-70
2021/05/14 08:31:49;;;;;;;43.35;21.85;;;;;;;14.58;65.53;101038.41;5019682;28;20290;-70
2021/05/14 08:34:16;;;;;;;47.58;22.13;;;;;;;14.50;66.43;101038.72;5015800;28;20057;-69
2021/05/14 08:36:43;;;;;;;42.53;20.33;;;;;;;14.82;64.41;101043.63;5019087;28;20062;-69
2021/05/14 08:39:11;;;;;;;47.97;22.27;;;;;;;14.61;63.81;101038.28;5016603;28;20053;-69
2021/05/14 08:41:39;;;;;;;44.05;20.35;;;;;;;14.88;65.03;101043.31;5018338;28;20049;-69
2021/05/14 08:44:08;;;;;;;46.35;22.38;;;;;;;14.73;65.14;101037.72;5015135;28;20057;-70
2021/05/14 08:46:37;;;;;;;44.53;20.75;;;;;;;15.27;61.81;101042.34;5014690;28;20060;-71
2021/05/14 08:49:18;;;;;;;40.63;20.00;;;;;;;15.72;60.73;101040.19;5015568;28;20526;-70
2021/05/14 08:51:46;;;;;;;48.22;21.80;;;;;;;15.76;59.21;101033.72;5019061;28;20095;-70
2021/05/14 08:54:13;;;;;;;41.28;20.05;;;;;;;16.29;60.34;101035.44;5015876;28;20645;-70
2021/05/14 08:56:40;;;;;;;41.33;20.25;;;;;;;15.80;58.05;101030.81;5018821;28;20064;-70
2021/05/14 08:59:08;;;;;;;45.28;21.00;;;;;;;15.52;60.45;101044.72;5015889;28;20061;-71
2021/05/14 09:01:38;;;;;;;47.40;21.15;;;;;;;16.25;59.61;101042.81;5018110;28;20061;-71
2021/05/14 09:04:11;;;;;;;48.92;21.63;;;;;;;16.87;58.66;101035.97;5015057;28;20060;-70
2021/05/14 09:06:40;;;;;;;46.08;20.80;;;;;;;16.36;56.85;101036.88;5018599;28;20072;-71
2021/05/14 09:09:09;;;;;;;43.90;21.60;;;;;;;16.24;55.96;101037.50;5017531;28;20053;-71
2021/05/14 09:11:40;;;;;;;44.78;21.38;;;;;;;16.78;56.13;101032.78;5017613;28;20065;-71
2021/05/14 09:14:28;;;;;;;42.10;19.85;;;;;;;17.40;54.76;101036.59;5016099;28;20057;-71
2021/05/14 09:16:56;;;;;;;46.58;20.92;;;;;;;16.95;56.02;101044.50;5013777;28;20068;-70
2021/05/14 09:19:31;;;;;;;44.03;20.92;;;;;;;16.79;53.81;101042.63;5017575;28;20061;-70
2021/05/14 09:22:13;;;;;;;42.60;19.80;;;;;;;18.35;53.10;101041.75;5016834;28;20065;-72
2021/05/14 09:24:43;;;;;;;40.35;18.85;;;;;;;18.12;51.40;101043.19;5016914;28;20391;-71
2021/05/14 09:27:26;;;;;;;41.47;21.67;;;;;;;17.36;54.40;101044.00;5013994;28;20123;-72
2021/05/14 09:29:55;;;;;;;44.15;20.63;;;;;;;17.52;51.84;101049.38;5016738;28;20053;-71
2021/05/14 09:32:25;;;;;;;46.25;19.55;;;;;;;17.96;54.44;101051.31;5013110;28;20065;-69
2021/05/14 09:34:55;;;;;;;37.88;18.85;;;;;;;17.64;52.03;101045.97;5015018;28;20066;-71
2021/05/14 09:37:24;;;;;;;37.58;18.98;;;;;;;17.95;52.03;101046.03;5014256;28;20107;-71
2021/05/14 09:40:12;;;;;;;35.03;18.00;;;;;;;17.91;52.63;101050.72;5017306;28;20064;-71
2021/05/14 09:42:39;;;;;;;38.53;19.27;;;;;;;18.01;52.66;101046.50;5016064;28;20059;-72
2021/05/14 09:45:19;;;;;;;38.45;18.38;;;;;;;17.60;54.14;101043.53;5017961;28;20071;-71
2021/05/14 09:48:00;;;;;;;33.67;17.00;;;;;;;17.34;53.68;101052.16;5028968;28;20338;-71
2021/05/14 09:50:29;;;;;;;36.60;18.35;;;;;;;17.42;55.36;101035.56;5013865;28;20158;-71
2021/05/14 09:53:05;;;;;;;33.95;17.98;;;;;;;17.35;54.21;101044.97;5017121;28;20058;-70
2021/05/14 09:55:34;;;;;;;35.70;18.60;;;;;;;17.03;53.58;101038.72;5013857;28;20065;-70
2021/05/14 09:58:09;;;;;;;37.17;18.25;;;;;;;17.36;53.39;101034.06;5020243;28;20112;-70
2021/05/14 10:00:37;;;;;;;37.28;18.75;;;;;;;16.95;53.72;101039.13;5013317;28;20148;-71
2021/05/14 10:03:05;;;;;;;39.53;19.98;;;;;;;16.94;51.62;101030.19;5018267;28;20061;-70
2021/05/14 10:05:36;;;;;;;37.60;19.20;;;;;;;18.03;51.66;101030.22;5019467;28;20443;-72
2021/05/14 10:08:05;;;;;;;41.50;20.45;;;;;;;18.48;50.81;101023.84;5020223;28;20065;-69
2021/05/14 10:10:34;;;;;;;37.38;19.05;;;;;;;18.27;49.49;101020.63;5020868;28;20083;-70
2021/05/14 10:13:03;;;;;;;38.03;18.98;;;;;;;18.38;49.75;101022.66;5025585;28;20144;-71
2021/05/14 10:15:32;;;;;;;34.42;19.10;;;;;;;18.55;47.95;101021.63;5017022;28;20061;-70
2021/05/14 10:18:03;;;;;;;32.42;18.67;;;;;;;18.88;48.15;101031.28;5024744;28;20708;-71
2021/05/14 10:20:33;;;;;;;35.03;18.90;;;;;;;19.34;47.86;101022.91;5022866;28;20461;-71
2021/05/14 10:23:02;;;;;;;31.52;18.45;;;;;;;19.91;48.67;101012.84;5019788;28;20072;-71
2021/05/14 10:25:50;;;;;;;36.33;19.13;;;;;;;17.63;51.34;101021.78;5021502;28;20054;-70
2021/05/14 10:28:21;;;;;;;32.97;17.95;;;;;;;18.53;51.42;101020.00;5013609;28;20073;-70
2021/05/14 10:31:23;;;;;;;34.38;19.30;;;;;;;19.30;48.93;101012.38;5021092;28;20057;-70
2021/05/14 10:33:53;;;;;;;30.95;17.67;;;;;;;18.45;48.61;101021.31;5017587;28;20088;-71
2021/05/14 10:36:42;;;;;;;31.80;16.70;;;;;;;17.33;47.79;101019.91;5021350;28;20057;-71
2021/05/14 10:39:11;;;;;;;31.17;16.75;;;;;;;17.81;49.38;101017.09;5020510;28;20096;-71
2021/05/14 10:41:50;;;;;;;26.92;14.80;;;;;;;18.01;49.29;101022.22;5022820;28;20083;-71
2021/05/14 10:44:18;;;;;;;32.83;15.88;;;;;;;18.35;47.67;101016.59;5019062;28;20151;-70
2021/05/14 10:46:46;;;;;;;29.33;16.17;;;;;;;18.06;48.69;101019.25;5022729;28;20056;-70
2021/05/14 10:49:15;;;;;;;37.38;18.33;;;;;;;17.83;49.22;101007.97;5020389;28;20080;-69
2021/05/14 10:52:03;;;;;;;32.60;17.05;;;;;;;18.35;51.02;101008.50;5022022;28;20068;-69
2021/05/14 10:54:52;;;;;;;33.47;17.73;;;;;;;17.35;51.43;101009.91;5022351;28;20139;-69
2021/05/14 10:57:48;;;;;;;29.27;17.05;;;;;;;17.35;53.05;101013.47;5019791;28;20130;-70
2021/05/14 11:00:30;;;;;;;37.50;18.65;;;;;;;17.81;51.06;100999.09;5018988;28;20691;-70
2021/05/14 11:03:16;;;;;;;34.97;18.13;;;;;;;17.67;50.63;101012.53;5021859;28;20096;-70
2021/05/14 11:05:45;;;;;;;32.10;17.30;;;;;;;17.07;52.04;101014.16;5020900;28;20057;-69
2021/05/14 11:08:41;;;;;;;31.10;17.63;;;;;;;17.65;51.20;101006.38;5016310;28;20145;-69
2021/05/14 11:11:12;;;;;;;32.25;16.27;;;;;;;17.92;51.36;101009.28;5021585;28;20058;-70
2021/05/14 11:13:43;;;;;;;32.60;17.52;;;;;;;17.46;52.02;101007.44;5017718;28;20518;-70
2021/05/14 11:16:33;;;;;;;31.63;17.10;;;;;;;18.43;49.39;101004.34;5022841;28;20160;-67
2021/05/14 11:19:16;;;;;;;36.03;18.10;;;;;;;17.52;49.95;101006.19;5036060;28;20251;-70
2021/05/14 11:22:08;;;;;;;31.73;17.05;;;;;;;17.94;50.20;101010.06;5017123;28;20144;-70
2021/05/14 11:24:43;;;;;;;30.08;17.23;;;;;;;17.66;49.79;101005.41;5018612;28;20084;-70